Time;durP1;ratioP1;P1;durP2;ratioP2;P2;SDS_P1;SDS_P2;PMS_P1;PMS_P2;Temp;Humidity;BMP_temperature;BMP_pressure;BME280_temperature;BME280_humidity;BME280_pressure;Samples;Min_cycle;Max_cycle;Signal;HPM_P1;HPM_P2
2022/12/18 00:00:23;;;;;;;30.87;18.80;;;-9.30;99.90;;;;;;5036316;28;20198;-88
2022/12/18 00:02:59;;;;;;;29.23;17.50;;;-9.30;99.90;;;;;;5036265;28;20185;-88
2022/12/18 00:05:36;;;;;;;39.93;19.40;;;-9.50;99.90;;;;;;5036321;28;20200;-88
2022/12/18 00:08:02;;;;;;;31.27;18.80;;;-9.60;99.90;;;;;;5036210;28;20220;-88
2022/12/18 00:10:29;;;;;;;32.00;19.00;;;-9.70;99.90;;;;;;5036414;28;20182;-88
2022/12/18 00:12:54;;;;;;;31.90;18.30;;;-9.70;99.90;;;;;;5035921;28;20175;-88
2022/12/18 00:15:20;;;;;;;30.97;18.10;;;-9.80;99.90;;;;;;5053730;28;20221;-88
2022/12/18 00:17:46;;;;;;;37.37;19.10;;;-9.80;99.90;;;;;;5036178;28;20664;-88
2022/12/18 00:20:11;;;;;;;32.77;18.53;;;-9.70;99.90;;;;;;5035904;28;20209;-88
2022/12/18 00:22:37;;;;;;;31.53;18.23;;;-9.70;99.90;;;;;;5053597;28;20337;-88
2022/12/18 00:25:03;;;;;;;35.87;19.27;;;-9.60;99.90;;;;;;5035678;28;20251;-88
2022/12/18 00:27:28;;;;;;;33.93;19.03;;;-9.60;99.90;;;;;;5035995;28;20265;-88
2022/12/18 00:29:54;;;;;;;34.60;19.23;;;-9.50;99.90;;;;;;5035985;28;20194;-88
2022/12/18 00:32:19;;;;;;;29.00;17.13;;;-9.40;99.90;;;;;;5035758;28;20186;-88
2022/12/18 00:34:45;;;;;;;32.90;19.07;;;-9.40;99.90;;;;;;5036318;28;20202;-88
2022/12/18 00:37:10;;;;;;;29.10;17.53;;;-9.30;99.90;;;;;;5035681;28;20216;-88
2022/12/18 00:39:36;;;;;;;28.93;17.77;;;-9.30;99.90;;;;;;5035672;28;20225;-88
2022/12/18 00:44:45;;;;;;;28.20;17.17;;;-9.30;99.90;;;;;;5053199;28;20209;-89
2022/12/18 00:47:11;;;;;;;34.40;18.57;;;-9.30;99.90;;;;;;5035788;28;20174;-88
2022/12/18 00:49:36;;;;;;;30.53;18.67;;;-9.40;99.90;;;;;;5035569;28;20190;-88
2022/12/18 00:52:02;;;;;;;35.20;20.23;;;-9.40;99.90;;;;;;5035338;28;20211;-88
2022/12/18 00:54:27;;;;;;;30.87;19.73;;;-9.50;99.90;;;;;;5035506;28;20198;-88
2022/12/18 00:56:54;;;;;;;32.23;20.73;;;-9.40;99.90;;;;;;5035794;28;20182;-88
2022/12/18 00:59:27;;;;;;;37.97;21.97;;;-9.30;99.90;;;;;;5035234;28;20186;-88
2022/12/18 01:01:53;;;;;;;41.37;23.63;;;-9.30;99.90;;;;;;5036126;28;20174;-88
2022/12/18 01:04:18;;;;;;;33.67;20.27;;;-9.30;99.90;;;;;;5035299;28;20202;-88
2022/12/18 01:07:17;;;;;;;32.43;19.30;;;-9.30;99.90;;;;;;5035783;28;20202;-88
2022/12/18 01:16:19;;;;;;;35.77;19.27;;;-9.20;99.90;;;;;;5053262;28;20242;-88
2022/12/18 01:19:25;;;;;;;36.97;19.43;;;-9.10;99.90;;;;;;5053257;28;20197;-88
2022/12/18 01:22:08;;;;;;;33.77;18.97;;;-9.10;99.90;;;;;;5035300;28;20236;-88
2022/12/18 01:25:08;;;;;;;31.33;18.00;;;-9.10;99.90;;;;;;5035129;28;20202;-88
2022/12/18 01:27:34;;;;;;;34.57;18.13;;;-9.20;99.90;;;;;;5053300;28;20170;-88
2022/12/18 01:30:00;;;;;;;34.13;18.87;;;-9.20;99.90;;;;;;5035246;28;20309;-88
2022/12/18 01:32:25;;;;;;;30.77;18.90;;;-9.20;99.90;;;;;;5035171;28;20263;-88
2022/12/18 01:34:51;;;;;;;33.27;19.47;;;-9.20;99.90;;;;;;5035531;28;20277;-88
2022/12/18 01:37:16;;;;;;;32.63;18.83;;;-9.30;99.90;;;;;;5035131;28;20189;-88
2022/12/18 01:39:42;;;;;;;33.63;18.57;;;-9.30;99.90;;;;;;5035021;28;20217;-88
2022/12/18 01:42:13;;;;;;;32.27;18.27;;;-9.30;99.90;;;;;;5035059;28;20182;-89
2022/12/18 01:44:59;;;;;;;30.60;18.43;;;-9.30;99.90;;;;;;5035028;28;20289;-88
2022/12/18 01:47:47;;;;;;;31.60;18.60;;;-9.40;99.90;;;;;;5034910;28;20174;-89
2022/12/18 01:50:39;;;;;;;28.53;17.83;;;-9.40;99.90;;;;;;5034941;28;20189;-88
2022/12/18 01:53:18;;;;;;;32.50;18.27;;;-9.40;99.90;;;;;;5034932;28;20240;-88
2022/12/18 01:55:49;;;;;;;33.80;18.20;;;-9.40;99.90;;;;;;5035268;28;20206;-88
2022/12/18 01:58:15;;;;;;;36.83;20.57;;;-9.50;99.90;;;;;;5037280;28;20174;-88
2022/12/18 02:00:41;;;;;;;36.27;20.97;;;-9.60;99.90;;;;;;5038523;28;20213;-88
2022/12/18 02:03:07;;;;;;;38.73;20.43;;;-9.60;99.90;;;;;;5039209;28;20178;-88
2022/12/18 02:05:45;;;;;;;40.23;23.33;;;-9.50;99.90;;;;;;5038618;28;20279;-88
2022/12/18 02:08:33;;;;;;;36.00;20.70;;;-9.60;99.90;;;;;;5038416;28;20178;-88
2022/12/18 02:11:36;;;;;;;35.10;20.03;;;-9.60;99.90;;;;;;5039144;28;20170;-88
2022/12/18 02:14:13;;;;;;;37.87;21.27;;;-9.50;99.90;;;;;;5038617;28;20270;-88
2022/12/18 02:16:57;;;;;;;34.57;19.43;;;-9.50;99.90;;;;;;5039023;28;20265;-88
2022/12/18 02:19:39;;;;;;;30.27;18.03;;;-9.60;99.90;;;;;;5038117;28;20178;-88
2022/12/18 02:22:14;;;;;;;33.50;18.17;;;-9.50;99.90;;;;;;5055954;28;20163;-88
2022/12/18 02:24:43;;;;;;;35.30;19.43;;;-9.50;99.90;;;;;;5037974;28;20247;-88
2022/12/18 02:27:10;;;;;;;31.60;17.77;;;-9.50;99.90;;;;;;5038018;28;20179;-88
2022/12/18 02:29:55;;;;;;;30.83;18.23;;;-9.50;99.90;;;;;;5037968;28;20274;-88
2022/12/18 02:32:31;;;;;;;27.43;17.63;;;-9.50;99.90;;;;;;5037821;28;20239;-88
2022/12/18 02:34:58;;;;;;;30.20;18.60;;;-9.40;99.90;;;;;;5038100;28;20198;-88
2022/12/18 02:37:26;;;;;;;31.07;18.33;;;-9.50;99.90;;;;;;5037796;28;20182;-88
2022/12/18 02:39:54;;;;;;;35.00;17.03;;;-9.50;99.90;;;;;;5038577;28;20237;-88
2022/12/18 02:42:20;;;;;;;32.10;18.63;;;-9.50;99.90;;;;;;5039267;28;20206;-88
2022/12/18 02:44:50;;;;;;;30.70;18.20;;;-9.50;99.90;;;;;;5039521;28;20190;-88
2022/12/18 02:47:22;;;;;;;29.53;18.03;;;-9.50;99.90;;;;;;5038601;28;20174;-88
2022/12/18 02:49:57;;;;;;;29.07;17.50;;;-9.50;99.90;;;;;;5039036;28;20189;-88
2022/12/18 02:52:41;;;;;;;36.23;17.53;;;-9.50;99.90;;;;;;5038558;28;20189;-88
2022/12/18 02:55:28;;;;;;;49.97;27.67;;;-9.50;99.90;;;;;;5039109;28;20243;-88
2022/12/18 02:58:03;;;;;;;48.43;27.13;;;-9.70;99.90;;;;;;5038338;28;20212;-88
2022/12/18 03:00:47;;;;;;;125.20;57.27;;;-9.70;99.90;;;;;;5037672;28;20683;-88
2022/12/18 03:03:18;;;;;;;154.43;68.03;;;-9.70;99.90;;;;;;5037494;28;20166;-88
2022/12/18 03:06:09;;;;;;;95.37;47.07;;;-9.70;99.90;;;;;;5055542;28;20194;-88
2022/12/18 03:08:39;;;;;;;99.57;46.53;;;-9.60;99.90;;;;;;5038010;28;20173;-88
2022/12/18 03:11:13;;;;;;;80.17;40.83;;;-9.60;99.90;;;;;;5037495;28;20178;-88
2022/12/18 03:13:50;;;;;;;67.10;34.77;;;-9.60;99.90;;;;;;5037928;28;20265;-88
2022/12/18 03:16:25;;;;;;;55.70;30.27;;;-9.60;99.90;;;;;;5037118;28;20194;-88
2022/12/18 03:19:09;;;;;;;57.60;29.67;;;-9.60;99.90;;;;;;5054819;28;20170;-88
2022/12/18 03:21:43;;;;;;;50.40;28.47;;;-9.60;99.90;;;;;;5055013;28;20201;-88
2022/12/18 03:24:10;;;;;;;47.23;25.80;;;-9.60;99.90;;;;;;5036906;28;20190;-88
2022/12/18 03:26:40;;;;;;;35.60;20.53;;;-9.70;99.90;;;;;;5037194;28;20189;-88
2022/12/18 03:29:26;;;;;;;33.33;19.13;;;-9.80;99.90;;;;;;5055451;28;20198;-88
2022/12/18 03:31:58;;;;;;;36.63;20.80;;;-9.90;99.90;;;;;;5036764;28;20181;-88
2022/12/18 03:34:32;;;;;;;31.77;19.03;;;-9.90;99.90;;;;;;5036807;28;20230;-88
2022/12/18 03:36:57;;;;;;;35.17;20.30;;;-10.00;99.90;;;;;;5037611;28;20219;-88
2022/12/18 03:39:24;;;;;;;30.07;18.37;;;-10.20;99.90;;;;;;5054338;28;20268;-88
2022/12/18 03:42:29;;;;;;;36.00;20.07;;;-10.30;99.90;;;;;;5036615;28;20269;-88
2022/12/18 03:45:23;;;;;;;34.07;18.93;;;-10.30;99.90;;;;;;4957430;28;20207;-88
2022/12/18 03:47:58;;;;;;;31.50;18.33;;;-10.20;99.90;;;;;;5037433;28;20180;-88
2022/12/18 03:50:35;;;;;;;32.20;18.73;;;-10.20;99.90;;;;;;5036363;28;20189;-88
2022/12/18 03:53:15;;;;;;;34.33;17.97;;;-10.10;99.90;;;;;;5036373;28;20186;-88
2022/12/18 03:55:42;;;;;;;29.97;17.00;;;-10.20;99.90;;;;;;5036350;28;20206;-88
2022/12/18 03:58:12;;;;;;;31.23;17.87;;;-10.20;99.90;;;;;;5036510;28;20205;-88
2022/12/18 04:00:39;;;;;;;29.67;16.57;;;-10.20;99.90;;;;;;5036171;28;20202;-88
2022/12/18 04:03:08;;;;;;;32.83;18.33;;;-10.20;99.90;;;;;;5036195;28;20182;-88
2022/12/18 04:05:35;;;;;;;30.43;17.60;;;-10.20;99.90;;;;;;5036263;28;20209;-88
2022/12/18 04:08:01;;;;;;;27.93;17.10;;;-10.10;99.90;;;;;;5036099;28;20186;-88
2022/12/18 04:10:27;;;;;;;63.47;32.13;;;-10.10;99.90;;;;;;5053981;28;20179;-88
2022/12/18 04:12:55;;;;;;;37.53;20.37;;;-10.10;99.90;;;;;;5035963;28;20186;-88
2022/12/18 04:15:21;;;;;;;44.50;23.07;;;-10.00;99.90;;;;;;5036626;28;20201;-88
2022/12/18 04:17:49;;;;;;;35.57;20.63;;;-10.00;99.90;;;;;;5035973;28;20185;-88
2022/12/18 04:20:14;;;;;;;40.77;19.77;;;-10.10;99.90;;;;;;5035990;28;20206;-88
2022/12/18 04:22:40;;;;;;;35.63;18.53;;;-10.10;99.90;;;;;;5035928;28;20246;-88
2022/12/18 04:25:06;;;;;;;33.47;17.73;;;-10.10;99.90;;;;;;5053540;28;20197;-88
2022/12/18 04:27:31;;;;;;;33.80;19.03;;;-10.20;99.90;;;;;;5035680;28;20178;-88
2022/12/18 04:29:57;;;;;;;34.73;18.67;;;-10.20;99.90;;;;;;5035789;28;20190;-88
2022/12/18 04:32:22;;;;;;;34.40;19.30;;;-10.30;99.90;;;;;;5035744;28;20186;-88
2022/12/18 04:34:48;;;;;;;36.57;18.37;;;-10.30;99.90;;;;;;5036656;28;20202;-88
2022/12/18 04:37:13;;;;;;;34.33;18.37;;;-10.20;99.90;;;;;;5036809;28;20216;-88
2022/12/18 04:39:39;;;;;;;36.90;18.40;;;-10.20;99.90;;;;;;5036846;28;20193;-88
2022/12/18 04:42:05;;;;;;;37.17;18.43;;;-10.10;99.90;;;;;;5035521;28;20656;-88
2022/12/18 04:44:30;;;;;;;34.50;18.47;;;-10.20;99.90;;;;;;5035795;28;20209;-88
2022/12/18 04:46:56;;;;;;;35.57;18.63;;;-10.20;99.90;;;;;;5053319;28;20178;-88
2022/12/18 04:49:22;;;;;;;34.93;17.60;;;-10.20;99.90;;;;;;5036335;28;20170;-88
2022/12/18 04:51:47;;;;;;;34.80;18.53;;;-10.20;99.90;;;;;;5035641;28;20289;-88
2022/12/18 04:54:13;;;;;;;31.97;17.43;;;-10.20;99.90;;;;;;5036231;28;20202;-88
2022/12/18 04:56:39;;;;;;;35.60;17.67;;;-10.20;99.90;;;;;;5036226;28;20186;-88
2022/12/18 04:59:05;;;;;;;33.57;17.27;;;-10.30;99.90;;;;;;5035409;28;20193;-88
2022/12/18 05:01:33;;;;;;;33.20;17.57;;;-10.30;99.90;;;;;;5035740;28;20206;-88
2022/12/18 05:03:59;;;;;;;35.07;17.60;;;-10.40;99.90;;;;;;5053152;28;20640;-88
2022/12/18 05:06:24;;;;;;;33.73;17.67;;;-10.40;99.90;;;;;;5036131;28;20217;-88
2022/12/18 05:08:50;;;;;;;31.43;17.50;;;-10.50;99.90;;;;;;5035660;28;20178;-88
2022/12/18 05:11:15;;;;;;;52.50;27.80;;;-10.50;99.90;;;;;;5053269;28;20193;-88
2022/12/18 05:13:42;;;;;;;84.23;41.63;;;-10.50;99.90;;;;;;5035562;28;20209;-88
2022/12/18 05:16:08;;;;;;;50.53;26.87;;;-10.50;99.90;;;;;;5035242;28;20194;-88
2022/12/18 05:18:34;;;;;;;43.73;23.37;;;-10.50;99.90;;;;;;5035371;28;20236;-88
2022/12/18 05:21:00;;;;;;;40.20;22.03;;;-10.30;99.90;;;;;;5035430;28;20229;-88
2022/12/18 05:23:25;;;;;;;36.07;19.70;;;-10.30;99.90;;;;;;5035245;28;20174;-88
2022/12/18 05:26:00;;;;;;;36.50;19.30;;;-10.30;99.90;;;;;;5053005;28;20194;-88
2022/12/18 05:28:27;;;;;;;33.57;19.93;;;-10.30;99.90;;;;;;5035530;28;20159;-88
2022/12/18 05:30:55;;;;;;;32.53;19.13;;;-10.30;99.90;;;;;;5052917;28;20181;-88
2022/12/18 05:33:23;;;;;;;37.87;19.60;;;-10.30;99.90;;;;;;5038078;28;20277;-88
2022/12/18 05:35:53;;;;;;;37.20;21.67;;;-10.20;99.90;;;;;;5039245;28;20681;-88
2022/12/18 05:38:20;;;;;;;38.33;20.70;;;-10.20;99.90;;;;;;5039217;28;20217;-88
2022/12/18 05:40:46;;;;;;;38.07;20.47;;;-10.20;99.90;;;;;;5038810;28;20217;-88
2022/12/18 05:43:26;;;;;;;33.97;19.97;;;-10.40;99.90;;;;;;5039705;28;20175;-88
2022/12/18 05:45:52;;;;;;;35.07;19.60;;;-10.30;99.90;;;;;;5038884;28;20230;-88
2022/12/18 05:48:19;;;;;;;38.27;23.47;;;-10.50;99.90;;;;;;5038787;28;20179;-88
2022/12/18 05:50:46;;;;;;;40.73;22.13;;;-10.60;99.90;;;;;;5038706;28;20200;-88
2022/12/18 05:53:13;;;;;;;34.70;19.53;;;-10.80;99.90;;;;;;5056669;28;20201;-88
2022/12/18 05:55:40;;;;;;;33.87;17.73;;;-10.90;99.90;;;;;;5038667;28;20244;-88
2022/12/18 05:58:07;;;;;;;33.93;18.90;;;-10.90;99.90;;;;;;5038792;28;20186;-88
2022/12/18 06:00:39;;;;;;;34.87;18.23;;;-11.00;99.90;;;;;;5056503;28;20288;-88
2022/12/18 06:03:06;;;;;;;42.43;18.77;;;-11.00;99.90;;;;;;5038516;28;20174;-88
2022/12/18 06:05:50;;;;;;;29.47;16.57;;;-11.00;99.90;;;;;;5056262;28;20202;-88
2022/12/18 06:08:15;;;;;;;29.87;16.80;;;-10.90;99.90;;;;;;5039240;28;20166;-88
2022/12/18 06:10:41;;;;;;;30.50;16.63;;;-10.90;99.90;;;;;;5038325;28;20189;-88
2022/12/18 06:13:07;;;;;;;29.13;15.77;;;-11.00;99.90;;;;;;5038219;28;20192;-88
2022/12/18 06:15:35;;;;;;;28.57;16.17;;;-10.90;99.90;;;;;;5038158;28;20206;-88
2022/12/18 06:18:01;;;;;;;29.77;16.00;;;-10.90;99.90;;;;;;5038263;28;20182;-88
2022/12/18 06:20:36;;;;;;;28.83;15.57;;;-10.90;99.90;;;;;;5038145;28;20267;-88
2022/12/18 06:23:02;;;;;;;30.43;17.43;;;-10.90;99.90;;;;;;5038106;28;20166;-88
2022/12/18 06:25:28;;;;;;;31.50;17.20;;;-10.90;99.90;;;;;;5055939;28;20201;-88
2022/12/18 06:27:53;;;;;;;35.77;18.17;;;-10.80;99.90;;;;;;5037970;28;20212;-88
2022/12/18 06:30:19;;;;;;;27.07;15.80;;;-10.80;99.90;;;;;;5055822;28;20175;-88
2022/12/18 06:32:45;;;;;;;28.03;16.20;;;-10.70;99.90;;;;;;5037855;28;20277;-88
2022/12/18 06:35:10;;;;;;;29.20;16.73;;;-10.70;99.90;;;;;;5037931;28;20198;-88
2022/12/18 06:37:36;;;;;;;38.00;19.77;;;-10.70;99.90;;;;;;5038452;28;20174;-88
2022/12/18 06:40:02;;;;;;;30.20;17.87;;;-10.60;99.90;;;;;;5038712;28;20206;-88
2022/12/18 06:42:29;;;;;;;30.93;17.03;;;-10.60;99.90;;;;;;5055851;28;20174;-88
2022/12/18 06:44:54;;;;;;;28.57;15.90;;;-10.60;99.90;;;;;;5037324;28;20247;-88
2022/12/18 06:47:20;;;;;;;24.17;14.23;;;-10.50;99.90;;;;;;5038493;28;20170;-88
2022/12/18 06:49:45;;;;;;;30.40;17.37;;;-10.50;99.90;;;;;;5037842;28;20185;-88
2022/12/18 06:52:11;;;;;;;37.60;18.90;;;-10.50;99.90;;;;;;5037998;28;20267;-88
2022/12/18 06:54:36;;;;;;;33.93;18.93;;;-10.50;99.90;;;;;;5055245;28;20194;-88
2022/12/18 06:57:02;;;;;;;33.23;19.47;;;-10.60;99.90;;;;;;5037540;28;20189;-88
2022/12/18 06:59:27;;;;;;;33.23;19.87;;;-10.50;99.90;;;;;;5038339;28;20174;-88
2022/12/18 07:01:53;;;;;;;63.53;36.37;;;-10.50;99.90;;;;;;5038229;28;20231;-88
2022/12/18 07:04:19;;;;;;;51.77;27.40;;;-10.50;99.90;;;;;;5037211;28;20243;-87
2022/12/18 07:06:44;;;;;;;45.00;25.83;;;-10.50;99.90;;;;;;5038378;28;20182;-88
2022/12/18 07:09:10;;;;;;;58.43;31.97;;;-10.50;99.90;;;;;;5037151;28;20178;-88
2022/12/18 07:11:35;;;;;;;99.60;50.43;;;-10.50;99.90;;;;;;5037826;28;20178;-88
2022/12/18 07:14:01;;;;;;;46.23;24.27;;;-10.40;99.90;;;;;;5037020;28;20323;-88
2022/12/18 07:16:28;;;;;;;37.63;21.00;;;-10.60;99.90;;;;;;5037080;28;20210;-88
2022/12/18 07:18:55;;;;;;;39.07;21.00;;;-10.60;99.90;;;;;;5037862;28;20170;-88
2022/12/18 07:21:22;;;;;;;33.53;18.27;;;-10.50;99.90;;;;;;5036921;28;20482;-88
2022/12/18 07:23:47;;;;;;;32.00;19.10;;;-10.70;99.90;;;;;;5055023;28;20178;-88
2022/12/18 07:26:14;;;;;;;36.80;20.90;;;-10.70;99.90;;;;;;5036867;28;20185;-89
2022/12/18 07:28:41;;;;;;;39.03;20.50;;;-10.70;99.90;;;;;;5036919;28;20185;-89
2022/12/18 07:31:12;;;;;;;37.07;20.00;;;-10.80;99.90;;;;;;5036746;28;20189;-89
2022/12/18 07:33:39;;;;;;;50.53;23.10;;;-10.80;99.90;;;;;;5037177;28;20261;-89
2022/12/18 07:36:06;;;;;;;51.43;24.57;;;-10.70;99.90;;;;;;5036990;28;20202;-89
2022/12/18 07:38:33;;;;;;;59.40;28.63;;;-10.70;99.90;;;;;;5036571;28;20186;-89
2022/12/18 07:41:04;;;;;;;53.03;26.83;;;-10.80;99.90;;;;;;5036616;28;20210;-89
2022/12/18 07:43:30;;;;;;;42.83;21.83;;;-10.90;99.90;;;;;;5054346;28;20633;-89
2022/12/18 07:45:56;;;;;;;41.10;23.50;;;-10.90;99.90;;;;;;5036436;28;20205;-89
2022/12/18 07:48:22;;;;;;;44.93;22.40;;;-10.80;99.90;;;;;;5036675;28;20224;-89
2022/12/18 07:50:48;;;;;;;43.67;21.43;;;-10.80;99.90;;;;;;5054175;28;20189;-89
2022/12/18 07:53:14;;;;;;;41.37;20.43;;;-10.70;99.90;;;;;;5036692;28;20285;-86
2022/12/18 07:55:41;;;;;;;35.00;19.40;;;-10.60;99.90;;;;;;5053352;28;20565;-89
2022/12/18 07:58:07;;;;;;;37.43;18.70;;;-10.60;99.90;;;;;;5036312;28;20185;-89
2022/12/18 08:00:33;;;;;;;39.10;20.60;;;-10.60;99.90;;;;;;5036150;28;20296;-89
2022/12/18 08:02:58;;;;;;;40.20;21.80;;;-10.60;99.90;;;;;;5036222;28;20201;-89
2022/12/18 08:05:24;;;;;;;43.23;22.83;;;-10.50;99.90;;;;;;5036529;28;20201;-89
2022/12/18 08:07:50;;;;;;;40.93;22.17;;;-10.40;99.90;;;;;;5036261;28;20283;-88
2022/12/18 08:10:16;;;;;;;55.90;28.77;;;-10.20;99.90;;;;;;5036096;28;20178;-88
2022/12/18 08:13:04;;;;;;;40.13;22.30;;;-10.00;99.90;;;;;;5036874;28;20193;-88
2022/12/18 08:15:32;;;;;;;37.50;21.23;;;-9.90;99.90;;;;;;5036057;28;20252;-88
2022/12/18 08:18:14;;;;;;;38.13;20.73;;;-9.80;99.90;;;;;;5035946;28;20197;-88
2022/12/18 08:24:02;;;;;;;39.27;21.30;;;-9.70;99.90;;;;;;5053725;28;20545;-89
2022/12/18 08:26:57;;;;;;;40.73;21.60;;;-9.80;99.90;;;;;;5036657;28;20265;-89
2022/12/18 08:29:31;;;;;;;41.20;22.57;;;-9.70;99.90;;;;;;5036992;28;20228;-88
2022/12/18 08:32:30;;;;;;;38.33;21.27;;;-9.60;99.90;;;;;;5035853;28;20173;-89
2022/12/18 08:34:56;;;;;;;43.27;23.00;;;-9.50;99.90;;;;;;5053729;28;20213;-89
2022/12/18 08:37:24;;;;;;;51.73;24.80;;;-9.50;99.90;;;;;;5035755;28;20190;-89
2022/12/18 08:39:50;;;;;;;59.47;31.10;;;-9.50;99.90;;;;;;5035655;28;20179;-89
2022/12/18 08:45:37;;;;;;;73.30;36.40;;;-9.30;99.90;;;;;;5053449;28;20201;-88
2022/12/18 08:48:03;;;;;;;95.83;49.70;;;-9.20;99.90;;;;;;5035643;28;20178;-89
2022/12/18 08:50:29;;;;;;;57.87;34.37;;;-9.10;99.90;;;;;;5053476;28;20193;-89
2022/12/18 08:52:54;;;;;;;45.23;25.20;;;-9.10;99.90;;;;;;5035722;28;20328;-89
2022/12/18 08:55:20;;;;;;;107.70;56.47;;;-9.00;99.90;;;;;;5035351;28;20206;-83
2022/12/18 08:58:03;;;;;;;48.13;26.50;;;-8.90;99.90;;;;;;5035532;28;20182;-86
2022/12/18 09:03:47;;;;;;;35.00;18.60;;;-8.60;99.90;;;;;;5053504;28;20170;-89
2022/12/18 09:06:18;;;;;;;34.63;20.47;;;-8.40;99.90;;;;;;5036377;28;20200;-89
2022/12/18 09:08:44;;;;;;;37.83;23.87;;;-8.40;99.90;;;;;;5039457;28;20185;-89
2022/12/18 09:11:52;;;;;;;39.13;23.83;;;-8.40;99.90;;;;;;5057660;28;20189;-89
2022/12/18 09:14:17;;;;;;;33.53;20.83;;;-8.30;99.90;;;;;;5039323;28;20209;-89
2022/12/18 09:16:54;;;;;;;40.27;24.87;;;-8.20;99.90;;;;;;5039479;28;20178;-89
2022/12/18 09:19:52;;;;;;;44.40;28.33;;;-8.10;99.90;;;;;;5039241;28;20249;-89
2022/12/18 09:22:18;;;;;;;33.50;20.87;;;-8.00;99.90;;;;;;5039204;28;20186;-89
2022/12/18 09:24:44;;;;;;;31.77;19.17;;;-7.90;99.90;;;;;;5039406;28;20202;-89
2022/12/18 09:27:10;;;;;;;35.90;19.50;;;-7.80;99.90;;;;;;5039488;28;20253;-89
2022/12/18 09:29:36;;;;;;;38.93;22.87;;;-7.70;99.90;;;;;;5039002;28;20577;-89
2022/12/18 09:32:02;;;;;;;39.83;23.90;;;-7.70;99.90;;;;;;5039062;28;20213;-89
2022/12/18 09:34:41;;;;;;;41.13;23.73;;;-7.60;99.90;;;;;;5038972;28;20198;-89
2022/12/18 09:37:07;;;;;;;36.20;22.30;;;-7.50;99.90;;;;;;5039046;28;20186;-89
2022/12/18 09:39:55;;;;;;;38.93;23.67;;;-7.50;99.90;;;;;;5039162;28;20241;-89
2022/12/18 09:42:26;;;;;;;36.07;22.80;;;-7.40;99.90;;;;;;5038872;28;20190;-89
2022/12/18 09:44:54;;;;;;;39.13;22.70;;;-7.30;99.90;;;;;;5038920;28;20201;-89
2022/12/18 09:47:39;;;;;;;37.80;24.23;;;-7.20;99.90;;;;;;5056652;28;20163;-89
2022/12/18 09:50:40;;;;;;;36.67;21.80;;;-7.10;99.90;;;;;;5038917;28;20190;-89
2022/12/18 09:53:26;;;;;;;38.17;23.83;;;-6.90;99.90;;;;;;5039012;28;20194;-89
2022/12/18 09:55:54;;;;;;;46.07;23.73;;;-6.90;99.90;;;;;;5038811;28;20206;-89
2022/12/18 09:59:01;;;;;;;35.80;21.40;;;-6.80;99.90;;;;;;5039663;28;20189;-89
2022/12/18 10:01:28;;;;;;;44.20;27.77;;;-6.60;99.90;;;;;;5038567;28;20190;-89
2022/12/18 10:03:54;;;;;;;39.70;23.93;;;-6.60;99.90;;;;;;5038493;28;20178;-89
2022/12/18 10:06:42;;;;;;;40.93;25.23;;;-6.60;99.90;;;;;;5056433;28;20206;-89
2022/12/18 10:09:34;;;;;;;36.13;21.23;;;-6.60;99.90;;;;;;5039091;28;20162;-89
2022/12/18 10:15:36;;;;;;;37.20;20.90;;;-6.60;99.90;;;;;;5056131;28;20694;-89
2022/12/18 10:18:51;;;;;;;38.37;22.77;;;-6.50;99.90;;;;;;5037557;28;20182;-89
2022/12/18 10:21:23;;;;;;;37.83;23.07;;;-6.50;99.90;;;;;;5021221;28;20301;-89
2022/12/18 10:24:17;;;;;;;40.43;24.50;;;-6.40;99.90;;;;;;5038109;28;20216;-89
2022/12/18 10:26:44;;;;;;;40.87;24.87;;;-6.40;99.90;;;;;;5038992;28;20210;-89
2022/12/18 10:29:15;;;;;;;44.80;26.63;;;-6.30;99.90;;;;;;5038067;28;20182;-88
2022/12/18 10:31:40;;;;;;;39.37;27.70;;;-6.30;99.90;;;;;;5038933;28;20236;-89
2022/12/18 10:34:11;;;;;;;42.33;28.83;;;-6.30;99.90;;;;;;5056578;28;20174;-89
2022/12/18 10:37:06;;;;;;;45.83;34.13;;;-6.20;99.90;;;;;;5037897;28;20231;-89
2022/12/18 10:43:14;;;;;;;47.43;31.03;;;-6.10;99.90;;;;;;5055840;28;20173;-89
2022/12/18 10:45:40;;;;;;;47.07;31.77;;;-6.10;99.90;;;;;;5037746;28;20198;-89
2022/12/18 10:48:19;;;;;;;42.90;28.27;;;-6.10;99.90;;;;;;5037715;28;20185;-89
2022/12/18 10:50:54;;;;;;;44.07;28.33;;;-6.10;99.90;;;;;;5037785;28;20170;-89
2022/12/18 10:53:26;;;;;;;42.87;26.77;;;-6.10;99.90;;;;;;5037557;28;20679;-89
2022/12/18 10:55:54;;;;;;;46.10;27.60;;;-6.20;99.90;;;;;;5037497;28;20224;-89
2022/12/18 10:58:33;;;;;;;42.63;25.67;;;-6.10;99.90;;;;;;5055490;28;20192;-89
2022/12/18 11:01:17;;;;;;;43.40;25.80;;;-6.20;99.90;;;;;;5055486;28;20664;-89
2022/12/18 11:04:08;;;;;;;44.53;28.73;;;-6.20;99.90;;;;;;5037351;28;20299;-89
2022/12/18 11:06:51;;;;;;;39.87;23.37;;;-6.20;99.90;;;;;;5037869;28;20162;-89
2022/12/18 11:09:36;;;;;;;40.47;25.67;;;-6.30;99.90;;;;;;5038780;28;20640;-87
2022/12/18 11:12:28;;;;;;;40.37;25.53;;;-6.20;99.90;;;;;;5043884;28;20182;-89
2022/12/18 11:15:39;;;;;;;43.23;26.17;;;-6.20;99.90;;;;;;5037108;28;20676;-89
2022/12/18 11:18:42;;;;;;;40.00;22.30;;;-6.10;99.90;;;;;;5037837;28;20174;-89
2022/12/18 11:24:34;;;;;;;36.83;21.63;;;-6.00;99.90;;;;;;5054863;28;20273;-89
2022/12/18 11:27:18;;;;;;;36.07;22.40;;;-6.00;99.90;;;;;;5036924;28;20204;-89
2022/12/18 11:33:29;;;;;;;37.30;21.87;;;-5.90;99.90;;;;;;5054931;28;20254;-88
2022/12/18 11:36:29;;;;;;;36.23;22.80;;;-5.80;99.90;;;;;;5036867;28;20200;-88
2022/12/18 11:38:57;;;;;;;45.53;25.77;;;-5.70;99.90;;;;;;5036938;28;20604;-88
2022/12/18 11:44:27;;;;;;;41.53;24.80;;;-5.40;99.90;;;;;;5054894;28;20286;-89
2022/12/18 11:47:03;;;;;;;34.33;20.67;;;-5.40;99.90;;;;;;5036680;28;20284;-89
2022/12/18 11:49:35;;;;;;;39.13;23.63;;;-5.50;99.90;;;;;;5037394;28;20496;-89
2022/12/18 11:52:04;;;;;;;37.63;23.57;;;-5.40;99.90;;;;;;5036495;28;20216;-88
2022/12/18 11:54:38;;;;;;;35.40;22.63;;;-5.40;99.90;;;;;;5036357;28;20205;-88
2022/12/18 11:57:42;;;;;;;37.23;24.07;;;-5.30;99.90;;;;;;5036782;28;20192;-89
2022/12/18 12:03:59;;;;;;;50.47;36.97;;;-5.20;99.90;;;;;;5054231;28;20161;-88
2022/12/18 12:06:33;;;;;;;35.93;24.40;;;-5.10;99.90;;;;;;5054153;28;20165;-88
2022/12/18 12:09:46;;;;;;;37.83;23.93;;;-5.10;99.90;;;;;;5037565;28;20308;-88
2022/12/18 12:12:27;;;;;;;45.90;30.00;;;-5.10;99.90;;;;;;5037390;28;20220;-88
2022/12/18 12:15:18;;;;;;;59.23;39.43;;;-5.10;99.90;;;;;;5037234;28;20202;-88
2022/12/18 12:17:57;;;;;;;39.63;24.43;;;-5.00;99.90;;;;;;5037784;28;20265;-89
2022/12/18 12:20:49;;;;;;;44.17;25.93;;;-5.00;99.90;;;;;;5037519;28;20194;-89
2022/12/18 12:23:42;;;;;;;39.50;24.47;;;-4.90;99.90;;;;;;5037423;28;20212;-89
2022/12/18 12:26:09;;;;;;;32.40;21.67;;;-4.90;99.90;;;;;;5055131;28;20225;-86
2022/12/18 12:29:31;;;;;;;37.27;24.93;;;-4.90;99.90;;;;;;5037050;28;20174;-88
2022/12/18 12:32:31;;;;;;;36.07;22.57;;;-4.80;99.90;;;;;;5036540;28;20175;-88
2022/12/18 12:38:31;;;;;;;32.37;20.93;;;-4.80;99.90;;;;;;5053934;28;20168;-88
2022/12/18 12:43:12;;;;;;;31.87;21.23;;;-4.60;99.90;;;;;;5035845;28;20348;-88
2022/12/18 12:44:02;;;;;;;38.43;24.37;;;-4.50;99.90;;;;;;5052915;28;20232;-88
2022/12/18 12:46:51;;;;;;;39.37;26.20;;;-4.50;99.90;;;;;;5036844;28;20207;-87
2022/12/18 12:49:47;;;;;;;34.07;21.77;;;-4.50;99.90;;;;;;5035775;28;20243;-89
2022/12/18 12:52:30;;;;;;;34.47;19.83;;;-4.40;99.90;;;;;;5053660;28;20301;-88
2022/12/18 12:55:24;;;;;;;34.53;20.37;;;-4.40;99.90;;;;;;5035872;28;20202;-88
2022/12/18 12:58:11;;;;;;;34.27;19.93;;;-4.40;99.90;;;;;;5035872;28;20166;-89
2022/12/18 13:01:13;;;;;;;34.70;20.17;;;-4.30;99.90;;;;;;5035626;28;20194;-89
2022/12/18 13:04:25;;;;;;;45.93;22.93;;;-4.30;99.90;;;;;;5036436;28;20224;-89
2022/12/18 13:07:44;;;;;;;53.17;24.47;;;-4.30;99.90;;;;;;5036604;28;20252;-88
2022/12/18 13:10:25;;;;;;;37.57;20.70;;;-4.30;99.90;;;;;;5036473;28;20182;-89
2022/12/18 13:13:23;;;;;;;41.13;22.97;;;-4.40;99.90;;;;;;5036302;28;20197;-88
2022/12/18 13:19:30;;;;;;;32.37;19.47;;;-4.30;99.90;;;;;;5053431;28;20166;-88
2022/12/18 13:22:31;;;;;;;29.60;17.73;;;-4.30;99.90;;;;;;5035272;28;20206;-89
2022/12/18 13:25:18;;;;;;;29.63;17.97;;;-4.30;99.90;;;;;;5035455;28;20198;-89
2022/12/18 13:28:12;;;;;;;32.10;18.90;;;-4.30;99.90;;;;;;5035265;28;20162;-89
2022/12/18 13:30:51;;;;;;;32.00;18.10;;;-4.20;99.90;;;;;;5036437;28;20177;-89
2022/12/18 13:33:17;;;;;;;26.93;16.43;;;-4.20;99.90;;;;;;5035279;28;20166;-89
2022/12/18 13:36:24;;;;;;;27.73;17.67;;;-4.20;99.90;;;;;;5035190;28;20202;-85
2022/12/18 13:43:12;;;;;;;25.83;17.33;;;-4.20;99.90;;;;;;5052993;28;20356;-88
2022/12/18 13:45:00;;;;;;;33.23;19.50;;;-4.20;99.90;;;;;;5053551;28;20194;-89
2022/12/18 13:47:43;;;;;;;32.73;19.17;;;-4.30;99.90;;;;;;5035767;28;20175;-88